Time;durP1;ratioP1;P1;durP2;ratioP2;P2;SDS_P1;SDS_P2;PMS_P1;PMS_P2;Temp;Humidity;BMP_temperature;BMP_pressure;BME280_temperature;BME280_humidity;BME280_pressure;Samples;Min_cycle;Max_cycle;Signal;HPM_P1;HPM_P2
2020/12/27 00:00:30;;;;;;;10.37;7.87;;;;;;;3.12;53.14;97910.19;8278163;28;20206;-80
2020/12/27 00:04:31;;;;;;;9.47;7.63;;;;;;;3.02;53.42;97894.97;8278238;28;20226;-79
2020/12/27 00:08:35;;;;;;;10.43;7.47;;;;;;;2.79;53.19;97895.31;8278260;28;20736;-79
2020/12/27 00:12:36;;;;;;;12.87;8.00;;;;;;;2.97;53.55;97873.72;8276476;28;20238;-79
2020/12/27 00:16:39;;;;;;;9.40;7.47;;;;;;;2.81;53.22;97878.25;8282684;28;20202;-79
2020/12/27 00:20:41;;;;;;;10.57;7.33;;;;;;;2.81;53.97;97865.44;8283778;28;20205;-79
2020/12/27 00:24:42;;;;;;;9.20;7.30;;;;;;;2.71;53.52;97868.13;8281046;28;20236;-79
2020/12/27 00:28:44;;;;;;;11.43;7.90;;;;;;;2.78;53.99;97848.44;8281152;28;20205;-79
2020/12/27 00:32:47;;;;;;;8.67;7.57;;;;;;;2.85;53.89;97832.13;8280478;28;20205;-79
2020/12/27 00:36:49;;;;;;;9.57;7.97;;;;;;;2.82;53.48;97821.09;8279663;28;20205;-79
2020/12/27 00:40:51;;;;;;;12.13;8.10;;;;;;;2.35;54.73;97813.25;8280353;28;20213;-78
2020/12/27 00:44:53;;;;;;;10.33;7.80;;;;;;;2.46;54.17;97808.00;8279199;28;20233;-79
2020/12/27 00:48:55;;;;;;;10.20;8.55;;;;;;;2.70;53.79;97796.56;8277423;28;20906;-79
2020/12/27 00:52:57;;;;;;;10.80;7.17;;;;;;;2.54;53.94;97791.69;8278540;28;20213;-79
2020/12/27 00:56:59;;;;;;;9.73;7.47;;;;;;;2.49;54.04;97780.66;8280339;28;20650;-79
2020/12/27 01:01:01;;;;;;;10.20;7.60;;;;;;;2.45;53.84;97770.53;8277159;28;20210;-78
2020/12/27 01:05:03;;;;;;;10.00;7.23;;;;;;;2.24;54.11;97764.03;8276425;28;20252;-78
2020/12/27 01:09:06;;;;;;;8.33;7.10;;;;;;;2.46;54.03;97744.94;8278223;28;20206;-79
2020/12/27 01:13:08;;;;;;;10.20;6.93;;;;;;;2.37;54.11;97745.09;8279646;28;20242;-79
2020/12/27 01:17:09;;;;;;;7.77;6.53;;;;;;;2.49;53.88;97746.59;8284316;28;20537;-80
2020/12/27 01:21:12;;;;;;;8.47;6.80;;;;;;;2.52;53.99;97747.41;8279913;28;20583;-79
2020/12/27 01:25:15;;;;;;;7.80;6.77;;;;;;;2.41;53.89;97736.50;8279940;28;20248;-79
2020/12/27 01:29:17;;;;;;;11.50;6.67;;;;;;;2.32;53.37;97728.97;8281132;28;20220;-79
2020/12/27 01:33:18;;;;;;;8.70;6.10;;;;;;;2.32;53.37;97714.50;8281055;28;20201;-79
2020/12/27 01:37:21;;;;;;;8.60;6.63;;;;;;;2.43;53.57;97714.31;8279775;28;20209;-79
2020/12/27 01:41:23;;;;;;;9.37;6.10;;;;;;;2.58;53.01;97700.44;8280362;28;20201;-79
2020/12/27 01:45:26;;;;;;;9.07;6.83;;;;;;;2.37;53.37;97688.84;8258773;28;20253;-79
2020/12/27 01:49:27;;;;;;;7.33;6.07;;;;;;;2.45;53.32;97675.94;8248949;28;20253;-79
2020/12/27 01:53:30;;;;;;;7.20;6.07;;;;;;;2.63;53.12;97670.53;8248431;28;20218;-79
2020/12/27 01:57:59;;;;;;;8.87;6.43;;;;;;;2.68;52.79;97653.38;8279614;28;20251;-79
2020/12/27 02:02:01;;;;;;;8.17;6.50;;;;;;;2.57;52.46;97657.00;8268076;28;20197;-79
2020/12/27 02:06:04;;;;;;;7.90;6.20;;;;;;;2.35;52.94;97632.66;8280976;28;20212;-78
2020/12/27 02:10:06;;;;;;;9.20;6.20;;;;;;;2.40;53.13;97622.38;8280051;28;20216;-79
2020/12/27 02:14:08;;;;;;;7.60;5.80;;;;;;;2.21;53.63;97609.06;8264735;28;20342;-79
2020/12/27 02:18:10;;;;;;;8.43;6.10;;;;;;;2.04;53.51;97591.44;8250243;28;20207;-79
2020/12/27 02:22:12;;;;;;;8.93;6.33;;;;;;;1.88;54.44;97580.63;8248502;28;20556;-79
2020/12/27 02:26:15;;;;;;;8.93;6.80;;;;;;;2.11;53.29;97572.59;8254115;28;20206;-79
2020/12/27 02:30:17;;;;;;;13.10;7.23;;;;;;;2.20;53.84;97563.91;8281460;28;20264;-79
2020/12/27 02:34:19;;;;;;;11.37;7.60;;;;;;;2.06;53.54;97535.22;8281494;28;20648;-79
2020/12/27 02:38:21;;;;;;;15.00;8.57;;;;;;;2.04;53.46;97526.75;8281906;28;20202;-79
2020/12/27 02:42:23;;;;;;;10.67;7.23;;;;;;;2.19;53.30;97513.72;8277725;28;20237;-79
2020/12/27 02:46:27;;;;;;;8.90;5.93;;;;;;;2.20;52.38;97510.28;8246445;28;20206;-79
2020/12/27 02:50:28;;;;;;;7.27;5.67;;;;;;;2.13;53.16;97501.03;8247682;28;20221;-80
2020/12/27 02:54:30;;;;;;;8.90;6.50;;;;;;;2.04;52.81;97493.56;8247788;28;20214;-80
2020/12/27 02:58:33;;;;;;;8.07;6.10;;;;;;;2.14;52.92;97482.28;8249373;28;20199;-80
2020/12/27 03:02:34;;;;;;;6.40;5.60;;;;;;;1.91;53.08;97473.31;8249735;28;20222;-79
2020/12/27 03:06:36;;;;;;;7.90;5.73;;;;;;;2.14;52.99;97478.00;8249459;28;20210;-79
2020/12/27 03:10:38;;;;;;;8.73;5.60;;;;;;;2.09;52.42;97463.63;8249270;28;20229;-80
2020/12/27 03:14:40;;;;;;;9.17;5.83;;;;;;;1.97;52.76;97451.94;8249586;28;20557;-80
2020/12/27 03:18:42;;;;;;;8.33;6.30;;;;;;;1.48;53.67;97445.13;8250913;28;20211;-80
2020/12/27 03:22:44;;;;;;;7.27;5.73;;;;;;;1.88;52.90;97429.13;8252218;28;20230;-80
2020/12/27 03:26:46;;;;;;;7.93;5.73;;;;;;;1.82;53.46;97427.50;8248875;28;20210;-79
2020/12/27 03:30:50;;;;;;;7.17;5.30;;;;;;;1.87;52.92;97415.53;8247466;28;20210;-80
2020/12/27 03:34:52;;;;;;;7.00;5.87;;;;;;;1.90;52.37;97402.66;8245627;28;20210;-79
2020/12/27 03:38:54;;;;;;;7.87;5.70;;;;;;;1.87;52.79;97399.38;8246684;28;20211;-80
2020/12/27 03:42:55;;;;;;;6.87;5.53;;;;;;;1.98;52.60;97396.59;8249849;28;20226;-80
2020/12/27 03:46:58;;;;;;;8.17;5.87;;;;;;;1.87;52.62;97373.84;8275947;28;20206;-80
2020/12/27 03:51:00;;;;;;;6.23;5.63;;;;;;;1.97;52.65;97390.66;8280328;28;20208;-79
2020/12/27 03:55:01;;;;;;;8.43;6.30;;;;;;;1.78;52.50;97389.31;8281545;28;20662;-79
2020/12/27 03:59:03;;;;;;;7.77;5.80;;;;;;;2.12;52.31;97377.56;8280498;28;20538;-79
2020/12/27 04:03:06;;;;;;;7.17;5.63;;;;;;;1.99;52.88;97373.56;8272185;28;20225;-79
2020/12/27 04:07:07;;;;;;;7.37;6.00;;;;;;;1.85;53.18;97370.47;8273178;28;20586;-79
2020/12/27 04:11:09;;;;;;;7.30;5.73;;;;;;;1.98;52.80;97365.94;8275036;28;20701;-79
2020/12/27 04:15:11;;;;;;;8.73;6.00;;;;;;;2.09;53.06;97361.47;8274124;28;20233;-79
2020/12/27 04:19:13;;;;;;;7.40;5.30;;;;;;;2.11;52.37;97352.06;8274107;28;20201;-79
2020/12/27 04:23:15;;;;;;;10.10;5.60;;;;;;;2.12;52.54;97333.31;8275935;28;20240;-80
2020/12/27 04:27:17;;;;;;;8.07;5.80;;;;;;;2.17;52.64;97330.66;8274136;28;20208;-80
2020/12/27 04:31:20;;;;;;;7.57;5.50;;;;;;;2.27;52.60;97337.28;8274647;28;20210;-79
2020/12/27 04:35:23;;;;;;;6.20;5.50;;;;;;;2.29;51.75;97330.41;8275989;28;20626;-79
2020/12/27 04:39:27;;;;;;;8.23;6.07;;;;;;;2.14;52.85;97317.06;8275331;28;20650;-80
2020/12/27 04:43:29;;;;;;;8.77;5.97;;;;;;;2.30;52.33;97298.84;8274181;28;20574;-79
2020/12/27 04:47:31;;;;;;;8.17;7.17;;;;;;;1.65;53.38;97284.03;8274120;28;20210;-79
2020/12/27 04:51:34;;;;;;;9.80;6.70;;;;;;;1.92;53.55;97264.75;8274066;28;20621;-79
2020/12/27 04:55:35;;;;;;;8.30;6.27;;;;;;;1.94;53.50;97252.78;8275909;28;20555;-79
2020/12/27 04:59:37;;;;;;;8.77;6.67;;;;;;;1.63;53.92;97243.22;8279583;28;20202;-80
2020/12/27 05:03:39;;;;;;;9.93;6.53;;;;;;;1.74;53.96;97243.84;8282227;28;20233;-80
2020/12/27 05:07:42;;;;;;;8.60;6.53;;;;;;;1.87;54.20;97238.50;8282047;28;20205;-80
2020/12/27 05:11:45;;;;;;;7.73;6.33;;;;;;;1.47;54.75;97229.09;8282483;28;20708;-80
2020/12/27 05:15:47;;;;;;;9.07;6.97;;;;;;;1.37;55.37;97228.41;8283396;28;20237;-80
2020/12/27 05:19:50;;;;;;;8.93;6.57;;;;;;;1.17;55.72;97214.34;8281717;28;20279;-80
2020/12/27 05:23:53;;;;;;;9.33;6.63;;;;;;;1.52;55.27;97202.63;8282447;28;20229;-81
2020/12/27 05:27:55;;;;;;;9.63;6.20;;;;;;;1.77;54.96;97189.31;8284702;28;20259;-80
2020/12/27 05:31:58;;;;;;;7.77;6.27;;;;;;;1.19;55.96;97186.25;8291756;28;20206;-80
2020/12/27 05:36:01;;;;;;;7.80;6.43;;;;;;;1.50;55.79;97183.94;8303649;28;20214;-80
2020/12/27 05:40:05;;;;;;;8.57;6.10;;;;;;;1.24;55.75;97170.84;8292217;28;20565;-81
2020/12/27 05:44:08;;;;;;;8.90;6.60;;;;;;;0.98;56.87;97167.13;8287701;28;20229;-80
2020/12/27 05:48:10;;;;;;;8.97;6.73;;;;;;;1.10;56.99;97159.22;8278814;28;20198;-80
2020/12/27 05:52:14;;;;;;;7.90;6.70;;;;;;;1.17;56.95;97153.13;8279787;28;20213;-80
2020/12/27 05:56:19;;;;;;;7.87;6.20;;;;;;;0.86;57.20;97155.44;8280291;28;20213;-80
2020/12/27 06:00:22;;;;;;;10.57;7.20;;;;;;;0.68;58.10;97145.56;8280479;28;20650;-79
2020/12/27 06:05:01;;;;;;;7.97;6.50;;;;;;;0.70;57.81;97129.38;8282999;28;20233;-79
2020/12/27 06:09:08;;;;;;;7.50;6.53;;;;;;;0.32;58.55;97123.25;8280095;28;20198;-79
2020/12/27 06:13:49;;;;;;;8.03;6.27;;;;;;;0.11;59.28;97111.72;8277239;28;20237;-80
2020/12/27 06:18:13;;;;;;;7.40;6.70;;;;;;;-0.35;60.43;97098.88;8276625;28;20194;-80
2020/12/27 06:22:19;;;;;;;6.60;5.53;;;;;;;-0.27;60.57;97080.09;8272364;28;20205;-79
2020/12/27 06:26:21;;;;;;;7.97;6.20;;;;;;;-0.43;60.93;97068.47;8276402;28;20221;-80
2020/12/27 06:30:27;;;;;;;7.47;6.57;;;;;;;-0.33;60.65;97059.81;8275650;28;20205;-79
2020/12/27 06:34:29;;;;;;;10.00;6.90;;;;;;;-0.74;62.22;97050.25;8276772;28;20210;-80
2020/12/27 06:38:32;;;;;;;7.53;6.20;;;;;;;-0.75;62.29;97021.47;8276323;28;20212;-79
2020/12/27 06:42:34;;;;;;;6.83;5.93;;;;;;;-0.80;62.61;97002.88;8277794;28;20209;-79
2020/12/27 06:46:46;;;;;;;7.57;6.50;;;;;;;-0.60;61.43;96993.25;8279849;28;20205;-79
2020/12/27 06:50:48;;;;;;;6.97;5.87;;;;;;;-0.53;61.74;96993.16;8280820;28;20198;-80
2020/12/27 06:54:51;;;;;;;7.47;6.70;;;;;;;-0.75;62.33;96985.03;8279824;28;20206;-80
2020/12/27 06:59:01;;;;;;;8.40;6.63;;;;;;;-0.65;62.01;96968.75;8279001;28;20202;-79
2020/12/27 07:03:10;;;;;;;6.90;6.20;;;;;;;-0.67;61.69;96981.50;8279102;28;20236;-79
2020/12/27 07:07:12;;;;;;;7.37;6.47;;;;;;;-0.66;61.66;96964.56;8258172;28;20211;-79
2020/12/27 07:11:19;;;;;;;7.43;6.33;;;;;;;-0.95;62.51;96964.97;8257884;28;20214;-79
2020/12/27 07:15:22;;;;;;;7.77;6.30;;;;;;;-1.07;62.63;96951.59;8249909;28;20237;-79
2020/12/27 07:19:25;;;;;;;7.67;6.27;;;;;;;-0.92;62.14;96947.16;8245986;28;20202;-79
2020/12/27 07:23:30;;;;;;;9.37;6.40;;;;;;;-0.76;61.24;96947.75;8246589;28;20594;-79
2020/12/27 07:27:35;;;;;;;7.33;6.03;;;;;;;-0.25;59.78;96938.44;8247954;28;20190;-80
2020/12/27 07:31:39;;;;;;;7.27;5.93;;;;;;;-0.20;59.10;96939.16;8247691;28;20210;-79
2020/12/27 07:35:42;;;;;;;6.67;5.73;;;;;;;0.06;58.71;96929.38;8247099;28;20206;-81
2020/12/27 07:39:52;;;;;;;7.37;5.63;;;;;;;-0.10;58.42;96914.38;8248836;28;20206;-79
2020/12/27 07:43:55;;;;;;;7.33;5.83;;;;;;;-0.12;58.80;96910.19;8247248;28;20222;-80
2020/12/27 07:47:57;;;;;;;5.80;5.20;;;;;;;-0.37;59.26;96912.34;8250191;28;20209;-79
2020/12/27 07:51:59;;;;;;;8.27;5.97;;;;;;;-0.01;58.48;96915.94;8245721;28;20203;-79
2020/12/27 07:56:01;;;;;;;6.37;5.60;;;;;;;-0.11;58.33;96906.81;8248176;28;20221;-81
2020/12/27 08:00:05;;;;;;;6.43;5.40;;;;;;;-0.20;58.31;96884.91;8251672;28;20647;-80
2020/12/27 08:04:08;;;;;;;5.63;5.10;;;;;;;-0.23;59.12;96872.22;8254707;28;20230;-81
2020/12/27 08:08:11;;;;;;;6.50;5.50;;;;;;;0.18;58.08;96871.41;8276988;28;20197;-81
2020/12/27 08:12:17;;;;;;;5.80;5.20;;;;;;;0.02;58.46;96859.00;8281062;28;20233;-81
2020/12/27 08:16:18;;;;;;;5.90;5.30;;;;;;;-0.43;59.59;96852.25;8280670;28;20209;-81
2020/12/27 08:20:21;;;;;;;6.63;5.43;;;;;;;-0.37;59.85;96836.88;8281431;28;20653;-81
2020/12/27 08:24:23;;;;;;;6.07;5.40;;;;;;;0.15;58.49;96829.88;8281337;28;20226;-81
2020/12/27 08:28:26;;;;;;;6.00;5.10;;;;;;;0.10;58.46;96824.06;8280740;28;20213;-81
2020/12/27 08:32:28;;;;;;;6.43;4.97;;;;;;;0.14;58.37;96818.03;8282699;28;20213;-80
2020/12/27 08:36:30;;;;;;;8.20;5.77;;;;;;;0.22;58.38;96823.81;8285978;28;20206;-81
2020/12/27 08:40:37;;;;;;;6.60;5.87;;;;;;;0.56;57.31;96815.41;8286742;28;20209;-80
2020/12/27 08:44:45;;;;;;;5.87;5.30;;;;;;;0.83;56.75;96796.09;8280218;28;20206;-80
2020/12/27 08:48:52;;;;;;;7.87;5.70;;;;;;;0.34;57.15;96776.84;8264883;28;20423;-80
2020/12/27 08:52:56;;;;;;;7.57;6.83;;;;;;;0.34;58.29;96762.44;8270449;28;20600;-80
2020/12/27 08:57:00;;;;;;;7.20;6.50;;;;;;;0.54;58.27;96758.56;8272742;28;20190;-80
2020/12/27 09:01:02;;;;;;;7.50;5.80;;;;;;;0.89;56.42;96760.25;8275395;28;20201;-80
2020/12/27 09:05:06;;;;;;;7.47;5.50;;;;;;;0.67;57.44;96759.94;8269576;28;20225;-80
2020/12/27 09:09:09;;;;;;;7.13;6.00;;;;;;;0.44;57.56;96735.03;8267153;28;20204;-80
2020/12/27 09:13:13;;;;;;;7.57;6.03;;;;;;;0.35;58.51;96750.53;8269619;28;20280;-80
2020/12/27 09:17:16;;;;;;;6.03;5.40;;;;;;;0.95;57.17;96744.81;8272567;28;20207;-80
2020/12/27 09:21:18;;;;;;;6.20;5.57;;;;;;;0.55;57.77;96719.47;8280856;28;20202;-80
2020/12/27 09:25:22;;;;;;;6.43;5.70;;;;;;;0.19;59.14;96705.03;8283423;28;20217;-79
2020/12/27 09:29:24;;;;;;;7.07;5.53;;;;;;;0.78;57.61;96713.78;8286741;28;20251;-80
2020/12/27 09:33:26;;;;;;;6.37;5.47;;;;;;;1.31;56.35;96726.88;8289523;28;20221;-80
2020/12/27 09:37:33;;;;;;;5.70;5.10;;;;;;;1.51;54.98;96718.66;8282599;28;20217;-79
2020/12/27 09:41:36;;;;;;;7.20;5.10;;;;;;;1.58;54.92;96701.47;8257635;28;20209;-79
2020/12/27 09:45:40;;;;;;;5.73;5.03;;;;;;;1.13;55.46;96689.94;8257778;28;20234;-80
2020/12/27 09:49:42;;;;;;;11.00;7.13;;;;;;;1.57;54.98;96674.25;8256216;28;20201;-80
2020/12/27 09:53:44;;;;;;;10.03;6.93;;;;;;;1.84;54.55;96676.88;8252449;28;20203;-80
2020/12/27 09:57:47;;;;;;;4.93;4.33;;;;;;;1.83;54.41;96668.38;8268917;28;20206;-81
2020/12/27 10:01:50;;;;;;;5.93;4.77;;;;;;;2.02;53.47;96637.16;8275674;28;20226;-80
2020/12/27 10:05:51;;;;;;;6.17;4.50;;;;;;;1.55;54.13;96637.75;8275993;28;20226;-81
2020/12/27 10:09:54;;;;;;;5.77;5.10;;;;;;;1.78;53.72;96613.25;8262982;28;20209;-80
2020/12/27 10:13:55;;;;;;;5.83;4.47;;;;;;;1.88;53.44;96604.41;8269298;28;20249;-78
2020/12/27 10:17:58;;;;;;;4.47;4.07;;;;;;;1.92;52.96;96588.09;8266453;28;20232;-78
2020/12/27 10:22:00;;;;;;;5.27;4.07;;;;;;;1.80;53.22;96570.63;8267235;28;20194;-78
2020/12/27 10:26:02;;;;;;;5.60;4.23;;;;;;;1.97;52.99;96565.00;8263768;28;20682;-79
2020/12/27 10:30:05;;;;;;;5.33;4.40;;;;;;;2.24;52.99;96561.53;8246435;28;20670;-78
2020/12/27 10:34:08;;;;;;;3.90;3.50;;;;;;;2.25;52.56;96550.44;8266225;28;20198;-79
2020/12/27 10:38:10;;;;;;;5.47;4.03;;;;;;;2.28;51.60;96534.97;8275358;28;20721;-79
2020/12/27 10:42:12;;;;;;;4.30;3.87;;;;;;;2.47;51.70;96512.19;8256948;28;20198;-78
2020/12/27 10:46:13;;;;;;;5.27;4.10;;;;;;;2.08;51.61;96501.63;8249296;28;20227;-78
2020/12/27 10:50:16;;;;;;;5.30;4.80;;;;;;;2.34;51.37;96496.47;8254667;28;20194;-78
2020/12/27 10:54:18;;;;;;;6.10;4.33;;;;;;;2.70;51.19;96483.25;8247856;28;20202;-78
2020/12/27 10:58:20;;;;;;;6.43;4.23;;;;;;;2.83;51.04;96470.84;8237181;28;20555;-78
2020/12/27 11:02:22;;;;;;;5.13;4.20;;;;;;;2.53;50.56;96450.66;8254378;28;20190;-79
2020/12/27 11:06:32;;;;;;;6.17;3.67;;;;;;;2.46;50.07;96430.50;8236794;28;20223;-78
2020/12/27 11:10:34;;;;;;;4.77;4.27;;;;;;;2.79;50.46;96407.09;8237078;28;20191;-79
2020/12/27 11:14:36;;;;;;;4.63;4.03;;;;;;;2.64;50.15;96393.19;8240018;28;20245;-79
2020/12/27 11:18:37;;;;;;;6.47;4.33;;;;;;;2.40;53.18;96375.34;8252363;28;20209;-80
2020/12/27 11:22:40;;;;;;;5.30;4.43;;;;;;;2.68;51.90;96364.06;8249502;28;20202;-80
2020/12/27 11:26:42;;;;;;;5.63;4.27;;;;;;;3.96;51.64;96346.88;8252112;28;20226;-80
2020/12/27 11:30:44;;;;;;;5.67;4.00;;;;;;;3.12;48.37;96335.88;8244144;28;20651;-79
2020/12/27 11:34:46;;;;;;;4.67;4.20;;;;;;;2.57;50.00;96303.16;8249066;28;20206;-81
2020/12/27 11:38:49;;;;;;;6.50;4.63;;;;;;;2.54;50.99;96291.28;8257779;28;20209;-81
2020/12/27 11:42:51;;;;;;;5.57;4.17;;;;;;;2.53;50.34;96289.66;8237092;28;20236;-80
2020/12/27 11:46:53;;;;;;;5.30;4.23;;;;;;;2.52;50.99;96269.25;8278905;28;20229;-80
2020/12/27 11:50:55;;;;;;;4.30;3.90;;;;;;;2.65;49.86;96249.16;8278695;28;20230;-81
2020/12/27 11:54:57;;;;;;;4.60;4.20;;;;;;;2.72;50.32;96246.31;8280497;28;20576;-79
2020/12/27 11:58:59;;;;;;;5.23;4.50;;;;;;;2.60;50.04;96240.84;8285291;28;20209;-79
2020/12/27 12:03:00;;;;;;;8.30;6.27;;;;;;;2.86;49.37;96235.50;8289360;28;20202;-80
2020/12/27 12:07:02;;;;;;;4.93;4.43;;;;;;;3.13;49.21;96220.72;8291646;28;20233;-80
2020/12/27 12:11:05;;;;;;;5.50;4.93;;;;;;;3.19;49.09;96188.09;8283332;28;20202;-81
2020/12/27 12:15:07;;;;;;;5.00;4.40;;;;;;;2.72;49.48;96171.31;8267320;28;20234;-80
2020/12/27 12:19:08;;;;;;;4.50;3.87;;;;;;;3.12;49.08;96165.34;8263942;28;20217;-81
2020/12/27 12:23:10;;;;;;;4.40;3.90;;;;;;;2.96;49.20;96168.63;8286539;28;20226;-81
2020/12/27 12:27:13;;;;;;;4.33;3.93;;;;;;;3.05;48.54;96158.03;8267772;28;20215;-80
2020/12/27 12:31:15;;;;;;;4.13;3.73;;;;;;;3.29;48.57;96150.97;8287248;28;20634;-80
2020/12/27 12:35:17;;;;;;;5.50;3.83;;;;;;;3.29;48.70;96143.31;8268807;28;20233;-80
2020/12/27 12:39:18;;;;;;;4.27;3.47;;;;;;;3.13;48.50;96120.13;8286350;28;20206;-81
2020/12/27 12:43:21;;;;;;;4.43;3.70;;;;;;;3.18;48.73;96094.34;8294029;28;20201;-79
2020/12/27 12:47:22;;;;;;;4.33;3.90;;;;;;;2.85;49.43;96075.31;8296064;28;20654;-81
2020/12/27 12:51:24;;;;;;;4.63;3.77;;;;;;;2.71;50.05;96057.19;8294785;28;20202;-79
2020/12/27 12:55:26;;;;;;;4.40;3.57;;;;;;;2.90;50.25;96057.22;8287668;28;20210;-79
2020/12/27 12:59:30;;;;;;;4.50;3.90;;;;;;;2.80;49.99;96050.84;8291469;28;20206;-80
2020/12/27 13:03:31;;;;;;;4.37;3.77;;;;;;;2.72;50.67;96041.81;8295568;28;20212;-80
2020/12/27 13:07:33;;;;;;;5.87;3.80;;;;;;;2.54;51.16;96029.81;8295867;28;20661;-80
2020/12/27 13:11:35;;;;;;;5.43;3.77;;;;;;;2.69;50.40;96020.66;8295234;28;20226;-80
2020/12/27 13:15:37;;;;;;;4.40;4.00;;;;;;;2.71;51.12;96019.69;8294958;28;20242;-80
2020/12/27 13:19:40;;;;;;;5.43;4.10;;;;;;;2.74;51.29;96005.94;8295363;28;20201;-81
2020/12/27 13:23:42;;;;;;;5.60;3.40;;;;;;;2.59;51.97;96011.72;8295613;28;20251;-81
2020/12/27 13:27:44;;;;;;;3.97;3.40;;;;;;;2.41;52.46;96003.13;8295749;28;20217;-81
2020/12/27 13:31:47;;;;;;;4.47;4.07;;;;;;;2.48;52.45;95989.22;8296047;28;20555;-81
2020/12/27 13:35:49;;;;;;;5.27;4.00;;;;;;;2.22;53.02;95992.88;8295917;28;20217;-81
2020/12/27 13:39:51;;;;;;;6.10;4.10;;;;;;;2.21;53.26;95981.00;8294854;28;20567;-82
2020/12/27 13:43:53;;;;;;;6.03;4.97;;;;;;;2.27;53.59;95960.31;8295506;28;20221;-81
2020/12/27 13:47:56;;;;;;;5.50;4.97;;;;;;;2.10;53.84;95959.31;8295620;28;20209;-81
2020/12/27 13:51:58;;;;;;;5.60;4.60;;;;;;;2.17;53.69;95967.56;8294535;28;20248;-81
2020/12/27 13:56:04;;;;;;;4.90;4.40;;;;;;;2.19;53.76;95957.25;8295624;28;20206;-81
2020/12/27 14:00:06;;;;;;;5.10;4.60;;;;;;;2.41;53.65;95954.59;8294951;28;20293;-82
2020/12/27 14:04:09;;;;;;;5.60;4.90;;;;;;;2.13;53.73;95946.41;8294884;28;20233;-82
2020/12/27 14:08:11;;;;;;;5.73;4.63;;;;;;;2.12;53.76;95931.16;8293849;28;20206;-81
2020/12/27 14:12:14;;;;;;;5.63;4.50;;;;;;;2.08;53.91;95927.91;8291346;28;20229;-79
2020/12/27 14:16:15;;;;;;;7.77;5.10;;;;;;;1.84;54.23;95911.91;8283900;28;20202;-80
2020/12/27 14:20:18;;;;;;;6.07;4.57;;;;;;;2.01;54.33;95897.59;8284080;28;20205;-79
2020/12/27 14:24:21;;;;;;;5.00;4.50;;;;;;;1.76;54.78;95894.38;8282196;28;20280;-80
2020/12/27 14:28:22;;;;;;;4.63;4.23;;;;;;;1.61;55.12;95866.13;8280916;28;20233;-80
2020/12/27 14:32:24;;;;;;;4.87;4.37;;;;;;;1.93;53.92;95862.19;8279569;28;20204;-79
2020/12/27 14:36:28;;;;;;;7.03;5.13;;;;;;;1.92;53.94;95860.53;8281513;28;20214;-80
2020/12/27 14:40:30;;;;;;;7.80;5.10;;;;;;;1.69;53.70;95839.38;8283960;28;20202;-79
2020/12/27 14:44:32;;;;;;;5.30;4.40;;;;;;;1.77;53.42;95831.38;8284103;28;20731;-80
2020/12/27 14:48:34;;;;;;;7.03;4.97;;;;;;;1.62;53.05;95825.25;8282998;28;20202;-79
2020/12/27 14:52:37;;;;;;;4.90;4.30;;;;;;;1.66;52.51;95806.34;8283498;28;20688;-79
2020/12/27 14:56:39;;;;;;;6.10;4.60;;;;;;;1.73;51.46;95814.56;8283902;28;20214;-79
2020/12/27 15:00:41;;;;;;;4.93;4.00;;;;;;;1.83;50.91;95797.09;8283419;28;20198;-79
2020/12/27 15:04:43;;;;;;;4.60;3.70;;;;;;;1.95;50.40;95783.81;8285261;28;20233;-80
2020/12/27 15:08:46;;;;;;;4.37;3.30;;;;;;;1.76;50.66;95771.88;8291716;28;20205;-80
2020/12/27 15:12:48;;;;;;;4.03;3.27;;;;;;;1.58;50.98;95766.75;8291733;28;20245;-80
2020/12/27 15:16:50;;;;;;;3.57;3.23;;;;;;;2.03;50.30;95756.19;8291843;28;20233;-80
2020/12/27 15:20:53;;;;;;;4.43;3.40;;;;;;;1.68;50.40;95750.16;8291329;28;20235;-80
2020/12/27 15:24:56;;;;;;;5.03;3.30;;;;;;;1.76;50.56;95748.06;8291523;28;20232;-81
2020/12/27 15:28:57;;;;;;;8.00;3.77;;;;;;;1.90;50.51;95739.78;8290426;28;20213;-81
2020/12/27 15:32:59;;;;;;;4.63;3.80;;;;;;;2.10;49.54;95742.25;8292500;28;20206;-81
2020/12/27 15:37:01;;;;;;;4.27;3.03;;;;;;;1.91;49.80;95723.59;8292307;28;20206;-81
2020/12/27 15:41:04;;;;;;;5.80;3.63;;;;;;;1.99;49.94;95718.13;8291312;28;20202;-81
2020/12/27 15:45:06;;;;;;;3.73;2.87;;;;;;;2.07;48.89;95704.09;8292376;28;20225;-81
2020/12/27 15:49:08;;;;;;;5.63;3.73;;;;;;;1.81;49.59;95689.16;8292275;28;20206;-81
2020/12/27 15:53:10;;;;;;;5.17;3.80;;;;;;;1.64;49.82;95672.91;8292568;28;20202;-81
2020/12/27 15:57:15;;;;;;;3.47;2.90;;;;;;;1.39;50.01;95668.09;8291610;28;20213;-81
2020/12/27 16:01:17;;;;;;;4.37;3.57;;;;;;;1.66;50.57;95660.91;8290951;28;20209;-81
2020/12/27 16:05:18;;;;;;;8.33;4.90;;;;;;;1.64;50.38;95660.16;8291879;28;20225;-82
2020/12/27 16:09:20;;;;;;;4.27;3.53;;;;;;;1.53;50.79;95642.78;8290948;28;20208;-81
2020/12/27 16:13:23;;;;;;;5.50;4.00;;;;;;;1.58;51.01;95624.72;8290222;28;20238;-81
2020/12/27 16:17:25;;;;;;;6.60;5.10;;;;;;;1.49;50.45;95620.84;8291014;28;20212;-81
2020/12/27 16:21:27;;;;;;;7.47;5.83;;;;;;;1.57;50.93;95617.97;8291199;28;20201;-81
2020/12/27 16:25:29;;;;;;;7.83;5.03;;;;;;;1.48;51.00;95605.63;8291579;28;20229;-81
2020/12/27 16:29:32;;;;;;;12.73;8.30;;;;;;;1.53;50.82;95588.38;8291273;28;20217;-81
2020/12/27 16:33:34;;;;;;;6.07;4.83;;;;;;;1.33;51.10;95572.28;8289461;28;20209;-81
2020/12/27 16:37:35;;;;;;;6.90;5.47;;;;;;;1.49;50.99;95554.53;8287762;28;20206;-82
2020/12/27 16:41:38;;;;;;;5.77;4.63;;;;;;;1.46;51.41;95553.84;8290171;28;20202;-81
2020/12/27 16:45:41;;;;;;;5.10;3.90;;;;;;;1.39;51.62;95555.03;8290587;28;20312;-81
2020/12/27 16:49:43;;;;;;;3.80;3.23;;;;;;;1.18;52.29;95544.91;8290444;28;20206;-81
2020/12/27 16:53:44;;;;;;;9.97;4.07;;;;;;;0.95;52.77;95540.88;8292346;28;20284;-81
2020/12/27 16:57:46;;;;;;;8.57;6.50;;;;;;;1.12;52.93;95533.31;8297068;28;20206;-81
2020/12/27 17:01:52;;;;;;;6.07;5.10;;;;;;;1.13;53.06;95529.03;8296108;28;20208;-80
2020/12/27 17:05:55;;;;;;;7.37;4.33;;;;;;;1.26;52.57;95517.34;8296794;28;20228;-80
2020/12/27 17:09:57;;;;;;;6.23;5.20;;;;;;;1.54;51.69;95523.69;8294784;28;20649;-81
2020/12/27 17:13:58;;;;;;;7.23;4.73;;;;;;;1.29;52.30;95511.28;8296107;28;20234;-81
2020/12/27 17:18:01;;;;;;;9.00;6.37;;;;;;;1.46;52.42;95493.44;8297303;28;20201;-80
2020/12/27 17:22:03;;;;;;;6.20;4.43;;;;;;;1.42;52.19;95480.94;8296463;28;20202;-80
2020/12/27 17:26:09;;;;;;;7.10;4.97;;;;;;;1.51;52.10;95472.84;8294716;28;20222;-80
2020/12/27 17:30:11;;;;;;;5.27;4.57;;;;;;;1.32;52.79;95447.41;8293949;28;20210;-81
2020/12/27 17:34:14;;;;;;;6.80;4.93;;;;;;;1.18;53.16;95445.47;8294166;28;20516;-81
2020/12/27 17:38:16;;;;;;;6.07;4.27;;;;;;;1.15;53.28;95438.81;8294284;28;20208;-81
2020/12/27 17:42:18;;;;;;;5.00;4.47;;;;;;;1.45;52.45;95435.72;8294630;28;20239;-80
2020/12/27 17:46:19;;;;;;;7.57;4.73;;;;;;;1.38;52.17;95418.22;8294444;28;20236;-79
2020/12/27 17:50:22;;;;;;;5.80;4.60;;;;;;;1.76;51.94;95406.94;8293995;28;20224;-80
2020/12/27 17:54:24;;;;;;;5.37;4.80;;;;;;;1.52;51.94;95401.34;8294247;28;20217;-80
2020/12/27 17:58:27;;;;;;;5.53;4.27;;;;;;;1.47;52.29;95385.44;8293400;28;20269;-80
2020/12/27 18:02:28;;;;;;;6.60;4.77;;;;;;;1.42;52.09;95373.81;8292491;28;20224;-80
2020/12/27 18:06:31;;;;;;;4.40;4.00;;;;;;;1.32;52.44;95369.16;8293428;28;20233;-79
2020/12/27 18:10:33;;;;;;;4.53;3.53;;;;;;;1.33;52.59;95364.88;8292847;28;20205;-80
2020/12/27 18:14:35;;;;;;;5.07;4.57;;;;;;;1.66;51.81;95364.13;8293230;28;20307;-80
2020/12/27 18:18:37;;;;;;;5.50;4.77;;;;;;;1.39;52.46;95348.47;8294169;28;20252;-80
2020/12/27 18:22:40;;;;;;;6.30;4.33;;;;;;;1.17;53.16;95335.03;8293239;28;20713;-80
2020/12/27 18:26:42;;;;;;;5.37;4.17;;;;;;;1.18;53.41;95328.22;8293272;28;20230;-80
2020/12/27 18:30:44;;;;;;;6.23;4.90;;;;;;;1.26;53.49;95333.78;8293775;28;20202;-80
2020/12/27 18:34:46;;;;;;;6.47;5.20;;;;;;;1.18;53.99;95330.75;8292618;28;20281;-81
2020/12/27 18:38:52;;;;;;;5.07;4.57;;;;;;;1.31;53.20;95328.44;8289543;28;20205;-80
2020/12/27 18:42:55;;;;;;;7.40;5.40;;;;;;;0.95;54.55;95302.16;8292444;28;20206;-80
2020/12/27 18:46:59;;;;;;;7.20;5.30;;;;;;;0.68;55.35;95290.72;8292209;28;20252;-80
2020/12/27 18:51:01;;;;;;;7.10;5.93;;;;;;;0.90;54.92;95285.44;8292441;28;20222;-81
2020/12/27 18:55:03;;;;;;;6.50;5.00;;;;;;;0.69;55.71;95287.31;8292233;28;20205;-81
2020/12/27 18:59:05;;;;;;;6.37;5.57;;;;;;;1.19;54.62;95272.97;8292800;28;20198;-80
2020/12/27 19:03:07;;;;;;;7.47;5.87;;;;;;;1.14;54.81;95284.22;8292631;28;20206;-80
2020/12/27 19:07:09;;;;;;;6.27;5.20;;;;;;;1.18;54.55;95251.72;8291592;28;20229;-81
2020/12/27 19:11:11;;;;;;;6.80;5.50;;;;;;;0.92;55.40;95255.59;8291141;28;20226;-80
2020/12/27 19:15:14;;;;;;;7.77;6.33;;;;;;;0.77;55.76;95260.53;8291672;28;20299;-79